DLH457 LOWW-EDDM
Flight info
| Callsign | DLH457 |
|---|---|
| Flight time | 0h 40m |
| Altitude | 30000 |
| Route | SOVIL DCT SITNI DCT BAGSI DCT MATIG DCT AMADI Q113 NAPSA NAPSA1B |
| Aircraft | A388/J-SADE2E3FGHIJ3J4J5M1RWXY/LB1D1 |
Departure
| Time | 2026-05-06 20:01 |
|---|---|
| Airport | Vienna International Airport (LOWW) |
Arrival
| Time | 2026-05-06 20:42 |
|---|---|
| Airport | Munich Airport (EDDM) |
| Time | Latitude | Longitude | Altitude | Speed | Heading |
|---|---|---|---|---|---|
| 2026-05-06 19:04 | 48.11807 | 16.55977 | 625 ft | 0 kts | 76° |
| 2026-05-06 19:20 | 48.11806 | 16.55972 | 628 ft | 2 kts | 76° |
| 2026-05-06 19:20 | 48.11799 | 16.55949 | 632 ft | 1 kts | 59° |
| 2026-05-06 19:20 | 48.11791 | 16.55934 | 631 ft | 1 kts | 45° |
| 2026-05-06 19:21 | 48.11778 | 16.55923 | 630 ft | 2 kts | 26° |
| 2026-05-06 19:21 | 48.11766 | 16.55920 | 632 ft | 2 kts | 3° |
| 2026-05-06 19:21 | 48.11754 | 16.55925 | 629 ft | 2 kts | 341° |
| 2026-05-06 19:21 | 48.11744 | 16.55935 | 632 ft | 2 kts | 319° |
| 2026-05-06 19:22 | 48.11737 | 16.55951 | 632 ft | 2 kts | 302° |
| 2026-05-06 19:22 | 48.11734 | 16.55959 | 633 ft | 0 kts | 296° |
| 2026-05-06 19:23 | 48.11739 | 16.55940 | 628 ft | 4 kts | 285° |
| 2026-05-06 19:24 | 48.11756 | 16.55866 | 629 ft | 11 kts | 284° |
| 2026-05-06 19:24 | 48.11757 | 16.55835 | 626 ft | 0 kts | 248° |
| 2026-05-06 19:25 | 48.11749 | 16.55814 | 627 ft | 7 kts | 230° |
| 2026-05-06 19:25 | 48.11728 | 16.55686 | 625 ft | 19 kts | 298° |
| 2026-05-06 19:25 | 48.11799 | 16.55478 | 624 ft | 26 kts | 296° |
| 2026-05-06 19:25 | 48.11883 | 16.55218 | 622 ft | 29 kts | 295° |
| 2026-05-06 19:26 | 48.11973 | 16.54934 | 625 ft | 31 kts | 295° |
| 2026-05-06 19:26 | 48.12067 | 16.54637 | 622 ft | 27 kts | 296° |
| 2026-05-06 19:26 | 48.12082 | 16.54592 | 620 ft | 0 kts | 296° |
| 2026-05-06 19:27 | 48.12098 | 16.54544 | 621 ft | 14 kts | 295° |
| 2026-05-06 19:27 | 48.12154 | 16.54372 | 617 ft | 22 kts | 295° |
| 2026-05-06 19:27 | 48.12198 | 16.54244 | 618 ft | 25 kts | 297° |
| 2026-05-06 19:28 | 48.12275 | 16.54002 | 603 ft | 22 kts | 295° |
| 2026-05-06 19:28 | 48.12283 | 16.53976 | 603 ft | 0 kts | 295° |
| 2026-05-06 19:29 | 48.12290 | 16.53953 | 603 ft | 6 kts | 296° |
| 2026-05-06 19:29 | 48.12324 | 16.53849 | 601 ft | 16 kts | 296° |
| 2026-05-06 19:29 | 48.12366 | 16.53725 | 601 ft | 0 kts | 296° |
| 2026-05-06 19:36 | 48.12377 | 16.53692 | 602 ft | 8 kts | 296° |
| 2026-05-06 19:36 | 48.12413 | 16.53583 | 603 ft | 15 kts | 296° |
| 2026-05-06 19:37 | 48.12422 | 16.53554 | 603 ft | 3 kts | 291° |
| 2026-05-06 19:37 | 48.12423 | 16.53547 | 603 ft | 0 kts | 285° |
| 2026-05-06 19:41 | 48.12426 | 16.53536 | 603 ft | 3 kts | 284° |
| 2026-05-06 19:41 | 48.12424 | 16.53486 | 604 ft | 5 kts | 245° |
| 2026-05-06 19:41 | 48.12408 | 16.53453 | 614 ft | 0 kts | 211° |
| 2026-05-06 19:42 | 48.12408 | 16.53452 | 614 ft | 0 kts | 211° |
| 2026-05-06 19:56 | 48.12398 | 16.53444 | 606 ft | 3 kts | 208° |
| 2026-05-06 19:57 | 48.12352 | 16.53415 | 624 ft | 13 kts | 194° |
| 2026-05-06 19:57 | 48.12255 | 16.53450 | 619 ft | 16 kts | 138° |
| 2026-05-06 19:57 | 48.12238 | 16.53474 | 623 ft | 0 kts | 120° |
| 2026-05-06 19:57 | 48.12236 | 16.53481 | 623 ft | 0 kts | 117° |
| 2026-05-06 19:58 | 48.12235 | 16.53483 | 620 ft | 0 kts | 116° |
| 2026-05-06 20:00 | 48.12234 | 16.53488 | 620 ft | 7 kts | 116° |
| 2026-05-06 20:00 | 48.12076 | 16.53969 | 618 ft | 94 kts | 116° |
| 2026-05-06 20:00 | 48.11695 | 16.55127 | 628 ft | 148 kts | 116° |
| 2026-05-06 20:01 | 48.11234 | 16.56564 | 1065 ft | 156 kts | 119° |
| 2026-05-06 20:01 | 48.10766 | 16.58025 | 1685 ft | 153 kts | 128° |
| 2026-05-06 20:01 | 48.10288 | 16.59451 | 2236 ft | 157 kts | 130° |
| 2026-05-06 20:01 | 48.09754 | 16.60982 | 2496 ft | 176 kts | 129° |
| 2026-05-06 20:02 | 48.09147 | 16.62726 | 2741 ft | 203 kts | 127° |
| 2026-05-06 20:02 | 48.08476 | 16.64715 | 3237 ft | 222 kts | 125° |
| 2026-05-06 20:02 | 48.07793 | 16.66822 | 4156 ft | 226 kts | 124° |
| 2026-05-06 20:02 | 48.07101 | 16.68967 | 4768 ft | 231 kts | 127° |
| 2026-05-06 20:03 | 48.06074 | 16.70662 | 4960 ft | 214 kts | 158° |
| 2026-05-06 20:03 | 48.04701 | 16.71191 | 5001 ft | 200 kts | 189° |
| 2026-05-06 20:03 | 48.03368 | 16.70722 | 5002 ft | 198 kts | 201° |
| 2026-05-06 20:03 | 48.02041 | 16.70171 | 5065 ft | 198 kts | 198° |
| 2026-05-06 20:04 | 48.00697 | 16.69685 | 5354 ft | 200 kts | 197° |
| 2026-05-06 20:04 | 47.99321 | 16.69212 | 6018 ft | 206 kts | 197° |
| 2026-05-06 20:04 | 47.97934 | 16.68745 | 6987 ft | 205 kts | 197° |
| 2026-05-06 20:04 | 47.96555 | 16.68110 | 7719 ft | 214 kts | 213° |
| 2026-05-06 20:05 | 47.95492 | 16.66452 | 8254 ft | 235 kts | 242° |
| 2026-05-06 20:05 | 47.95115 | 16.63954 | 8730 ft | 262 kts | 268° |
| 2026-05-06 20:05 | 47.95386 | 16.61204 | 9269 ft | 274 kts | 279° |
| 2026-05-06 20:05 | 47.95819 | 16.58457 | 10185 ft | 275 kts | 278° |
| 2026-05-06 20:06 | 47.96212 | 16.55576 | 10632 ft | 294 kts | 276° |
| 2026-05-06 20:06 | 47.96537 | 16.52442 | 10858 ft | 317 kts | 274° |
| 2026-05-06 20:06 | 47.96817 | 16.49107 | 11374 ft | 328 kts | 273° |
| 2026-05-06 20:06 | 47.97077 | 16.45708 | 12114 ft | 332 kts | 272° |
| 2026-05-06 20:07 | 47.97333 | 16.42265 | 12871 ft | 336 kts | 272° |
| 2026-05-06 20:07 | 47.97589 | 16.38772 | 13594 ft | 341 kts | 272° |
| 2026-05-06 20:07 | 47.97849 | 16.35231 | 14275 ft | 344 kts | 272° |
| 2026-05-06 20:07 | 47.98110 | 16.31657 | 14953 ft | 349 kts | 273° |
| 2026-05-06 20:08 | 47.98377 | 16.28008 | 15538 ft | 355 kts | 273° |
| 2026-05-06 20:08 | 47.98646 | 16.24333 | 16273 ft | 357 kts | 273° |
| 2026-05-06 20:08 | 47.98916 | 16.20633 | 16922 ft | 361 kts | 272° |
| 2026-05-06 20:08 | 47.99187 | 16.16897 | 17602 ft | 363 kts | 272° |
| 2026-05-06 20:09 | 47.99458 | 16.13130 | 18209 ft | 367 kts | 272° |
| 2026-05-06 20:09 | 47.99731 | 16.09313 | 18787 ft | 370 kts | 272° |
| 2026-05-06 20:09 | 48.00005 | 16.05479 | 19362 ft | 373 kts | 272° |
| 2026-05-06 20:09 | 48.00280 | 16.01615 | 19934 ft | 375 kts | 272° |
| 2026-05-06 20:10 | 48.00555 | 15.97720 | 20487 ft | 378 kts | 272° |
| 2026-05-06 20:10 | 48.00829 | 15.93787 | 20949 ft | 382 kts | 272° |
| 2026-05-06 20:10 | 48.01102 | 15.89881 | 21548 ft | 384 kts | 272° |
| 2026-05-06 20:10 | 48.01380 | 15.85907 | 22149 ft | 385 kts | 272° |
| 2026-05-06 20:11 | 48.01658 | 15.81897 | 22660 ft | 389 kts | 272° |
| 2026-05-06 20:11 | 48.01937 | 15.77867 | 23204 ft | 392 kts | 271° |
| 2026-05-06 20:11 | 48.02218 | 15.73802 | 23694 ft | 395 kts | 272° |
| 2026-05-06 20:11 | 48.02500 | 15.69698 | 24217 ft | 395 kts | 271° |
| 2026-05-06 20:12 | 48.02777 | 15.65615 | 24759 ft | 395 kts | 271° |
| 2026-05-06 20:12 | 48.03053 | 15.61521 | 25226 ft | 398 kts | 271° |
| 2026-05-06 20:12 | 48.03330 | 15.57396 | 25708 ft | 400 kts | 271° |
| 2026-05-06 20:12 | 48.03607 | 15.53242 | 26291 ft | 401 kts | 271° |
| 2026-05-06 20:13 | 48.03882 | 15.49084 | 26855 ft | 404 kts | 271° |
| 2026-05-06 20:13 | 48.04158 | 15.44910 | 27578 ft | 403 kts | 271° |
| 2026-05-06 20:13 | 48.04433 | 15.40725 | 28158 ft | 406 kts | 271° |
| 2026-05-06 20:13 | 48.04663 | 15.36506 | 28709 ft | 407 kts | 268° |
| 2026-05-06 20:14 | 48.04718 | 15.32260 | 29208 ft | 411 kts | 267° |
| 2026-05-06 20:14 | 48.04781 | 15.27975 | 29691 ft | 414 kts | 267° |
| 2026-05-06 20:14 | 48.04853 | 15.23642 | 29795 ft | 422 kts | 267° |
| 2026-05-06 20:14 | 48.04923 | 15.19170 | 29782 ft | 437 kts | 267° |
| 2026-05-06 20:15 | 48.05065 | 15.10016 | 29794 ft | 442 kts | 267° |
| 2026-05-06 20:15 | 48.05200 | 15.00872 | 29780 ft | 437 kts | 267° |
| 2026-05-06 20:16 | 48.05321 | 14.91808 | 29782 ft | 436 kts | 266° |
| 2026-05-06 20:16 | 48.05433 | 14.82740 | 29794 ft | 436 kts | 266° |
| 2026-05-06 20:17 | 48.05514 | 14.73736 | 29790 ft | 436 kts | 266° |
| 2026-05-06 20:17 | 48.05578 | 14.64672 | 29789 ft | 436 kts | 266° |
| 2026-05-06 20:18 | 48.05636 | 14.55629 | 29807 ft | 433 kts | 266° |
| 2026-05-06 20:18 | 48.05696 | 14.46695 | 29620 ft | 419 kts | 266° |
| 2026-05-06 20:19 | 48.05725 | 14.42411 | 29344 ft | 406 kts | 265° |
| 2026-05-06 20:19 | 48.05749 | 14.38244 | 29072 ft | 397 kts | 265° |
| 2026-05-06 20:19 | 48.05767 | 14.34121 | 28799 ft | 397 kts | 265° |
| 2026-05-06 20:19 | 48.05781 | 14.29982 | 28523 ft | 398 kts | 265° |
| 2026-05-06 20:20 | 48.05796 | 14.25851 | 28251 ft | 397 kts | 265° |
| 2026-05-06 20:20 | 48.05811 | 14.21720 | 27983 ft | 396 kts | 265° |
| 2026-05-06 20:20 | 48.05825 | 14.17611 | 27715 ft | 395 kts | 265° |
| 2026-05-06 20:20 | 48.05838 | 14.13510 | 27482 ft | 394 kts | 265° |
| 2026-05-06 20:21 | 48.05850 | 14.09419 | 27221 ft | 393 kts | 265° |
| 2026-05-06 20:21 | 48.05859 | 14.05335 | 26981 ft | 392 kts | 265° |
| 2026-05-06 20:21 | 48.05868 | 14.01258 | 26713 ft | 392 kts | 265° |
| 2026-05-06 20:21 | 48.05875 | 13.97200 | 26458 ft | 391 kts | 265° |
| 2026-05-06 20:22 | 48.05879 | 13.93142 | 26212 ft | 390 kts | 265° |
| 2026-05-06 20:22 | 48.05882 | 13.89094 | 25979 ft | 389 kts | 265° |
| 2026-05-06 20:22 | 48.05885 | 13.85051 | 25730 ft | 388 kts | 265° |
| 2026-05-06 20:22 | 48.05887 | 13.81023 | 25472 ft | 387 kts | 265° |
| 2026-05-06 20:23 | 48.05886 | 13.77000 | 25252 ft | 386 kts | 265° |
| 2026-05-06 20:23 | 48.05884 | 13.72992 | 25035 ft | 386 kts | 265° |
| 2026-05-06 20:23 | 48.05881 | 13.68974 | 24794 ft | 387 kts | 265° |
| 2026-05-06 20:23 | 48.05877 | 13.64955 | 24555 ft | 386 kts | 265° |
| 2026-05-06 20:24 | 48.05872 | 13.60946 | 24325 ft | 385 kts | 265° |
| 2026-05-06 20:24 | 48.05866 | 13.56947 | 24088 ft | 385 kts | 265° |
| 2026-05-06 20:24 | 48.05907 | 13.52949 | 23862 ft | 386 kts | 269° |
| 2026-05-06 20:24 | 48.06131 | 13.49022 | 23635 ft | 386 kts | 270° |
| 2026-05-06 20:25 | 48.06356 | 13.45031 | 23397 ft | 385 kts | 270° |
| 2026-05-06 20:25 | 48.06573 | 13.41049 | 23115 ft | 384 kts | 270° |
| 2026-05-06 20:25 | 48.06787 | 13.37070 | 22850 ft | 382 kts | 270° |
| 2026-05-06 20:25 | 48.06998 | 13.33117 | 22577 ft | 381 kts | 270° |
| 2026-05-06 20:26 | 48.07206 | 13.29175 | 22335 ft | 380 kts | 270° |
| 2026-05-06 20:26 | 48.07412 | 13.25226 | 22004 ft | 380 kts | 270° |
| 2026-05-06 20:26 | 48.07617 | 13.21284 | 21521 ft | 379 kts | 270° |
| 2026-05-06 20:26 | 48.07819 | 13.17354 | 20946 ft | 377 kts | 270° |
| 2026-05-06 20:27 | 48.08019 | 13.13495 | 20366 ft | 375 kts | 270° |
| 2026-05-06 20:27 | 48.08218 | 13.09642 | 20058 ft | 369 kts | 270° |
| 2026-05-06 20:27 | 48.08552 | 13.03035 | 19147 ft | 371 kts | 270° |
| 2026-05-06 20:27 | 48.08940 | 12.95270 | 18224 ft | 363 kts | 270° |
| 2026-05-06 20:28 | 48.09300 | 12.89423 | 17254 ft | 364 kts | 274° |
| 2026-05-06 20:28 | 48.09666 | 12.85707 | 16877 ft | 358 kts | 274° |
| 2026-05-06 20:28 | 48.10022 | 12.82024 | 16502 ft | 357 kts | 274° |
| 2026-05-06 20:28 | 48.10371 | 12.78367 | 16060 ft | 353 kts | 274° |
| 2026-05-06 20:29 | 48.10712 | 12.74755 | 15637 ft | 349 kts | 274° |
| 2026-05-06 20:29 | 48.11365 | 12.67780 | 14643 ft | 345 kts | 274° |
| 2026-05-06 20:29 | 48.12021 | 12.60738 | 13682 ft | 338 kts | 274° |
| 2026-05-06 20:29 | 48.12521 | 12.55335 | 13090 ft | 333 kts | 274° |
| 2026-05-06 20:30 | 48.12836 | 12.51906 | 12793 ft | 331 kts | 274° |
| 2026-05-06 20:30 | 48.13458 | 12.45116 | 12070 ft | 329 kts | 274° |
| 2026-05-06 20:30 | 48.13766 | 12.41743 | 11608 ft | 327 kts | 274° |
| 2026-05-06 20:31 | 48.14072 | 12.38377 | 11047 ft | 326 kts | 274° |
| 2026-05-06 20:31 | 48.14376 | 12.35026 | 10456 ft | 325 kts | 274° |
| 2026-05-06 20:31 | 48.14657 | 12.31724 | 10220 ft | 313 kts | 273° |
| 2026-05-06 20:31 | 48.14993 | 12.26811 | 10022 ft | 291 kts | 272° |
| 2026-05-06 20:32 | 48.15379 | 12.21015 | 9793 ft | 273 kts | 272° |
| 2026-05-06 20:32 | 48.15759 | 12.15396 | 9487 ft | 270 kts | 272° |
| 2026-05-06 20:32 | 48.16013 | 12.11687 | 9156 ft | 270 kts | 272° |
| 2026-05-06 20:32 | 48.16394 | 12.06111 | 8710 ft | 267 kts | 273° |
| 2026-05-06 20:33 | 48.16900 | 11.98890 | 8303 ft | 260 kts | 278° |
| 2026-05-06 20:33 | 48.18073 | 11.95653 | 7885 ft | 271 kts | 313° |
| 2026-05-06 20:33 | 48.20150 | 11.94111 | 7473 ft | 280 kts | 346° |
| 2026-05-06 20:33 | 48.22113 | 11.94275 | 7119 ft | 290 kts | 12° |
| 2026-05-06 20:34 | 48.23890 | 11.95748 | 6782 ft | 298 kts | 38° |
| 2026-05-06 20:34 | 48.25148 | 11.98238 | 6474 ft | 301 kts | 57° |
| 2026-05-06 20:34 | 48.26117 | 12.01024 | 6138 ft | 301 kts | 60° |
| 2026-05-06 20:34 | 48.27065 | 12.03818 | 5756 ft | 300 kts | 59° |
| 2026-05-06 20:35 | 48.28051 | 12.06554 | 5434 ft | 295 kts | 57° |
| 2026-05-06 20:35 | 48.29062 | 12.09219 | 5130 ft | 294 kts | 56° |
| 2026-05-06 20:35 | 48.30093 | 12.11848 | 5013 ft | 290 kts | 55° |
| 2026-05-06 20:35 | 48.31126 | 12.14453 | 5012 ft | 290 kts | 55° |
| 2026-05-06 20:36 | 48.32262 | 12.16836 | 4989 ft | 267 kts | 34° |
| 2026-05-06 20:36 | 48.33810 | 12.17893 | 4996 ft | 231 kts | 357° |
| 2026-05-06 20:36 | 48.35285 | 12.17573 | 4995 ft | 202 kts | 328° |
| 2026-05-06 20:36 | 48.36431 | 12.16095 | 4990 ft | 175 kts | 297° |
| 2026-05-06 20:37 | 48.36903 | 12.12941 | 5002 ft | 151 kts | 270° |
| 2026-05-06 20:37 | 48.36735 | 12.09784 | 5000 ft | 152 kts | 266° |
| 2026-05-06 20:37 | 48.36501 | 12.06725 | 4964 ft | 147 kts | 265° |
| 2026-05-06 20:37 | 48.36387 | 12.05255 | 4796 ft | 138 kts | 266° |
| 2026-05-06 20:38 | 48.36280 | 12.03847 | 4612 ft | 134 kts | 266° |
| 2026-05-06 20:38 | 48.36174 | 12.02465 | 4423 ft | 132 kts | 266° |
| 2026-05-06 20:38 | 48.36067 | 12.01099 | 4249 ft | 130 kts | 266° |
| 2026-05-06 20:38 | 48.35969 | 11.99775 | 4080 ft | 130 kts | 266° |
| 2026-05-06 20:39 | 48.35863 | 11.98429 | 3900 ft | 129 kts | 266° |
| 2026-05-06 20:39 | 48.35761 | 11.97101 | 3728 ft | 126 kts | 266° |
| 2026-05-06 20:39 | 48.35663 | 11.95830 | 3569 ft | 123 kts | 265° |
| 2026-05-06 20:39 | 48.35480 | 11.93441 | 3256 ft | 123 kts | 265° |
| 2026-05-06 20:40 | 48.35380 | 11.92159 | 3093 ft | 123 kts | 265° |
| 2026-05-06 20:40 | 48.35282 | 11.90875 | 2923 ft | 124 kts | 264° |
| 2026-05-06 20:40 | 48.34925 | 11.86230 | 2295 ft | 132 kts | 262° |
| 2026-05-06 20:40 | 48.34818 | 11.84853 | 2105 ft | 134 kts | 262° |
| 2026-05-06 20:41 | 48.34729 | 11.83446 | 1900 ft | 133 kts | 259° |
| 2026-05-06 20:41 | 48.34615 | 11.82083 | 1702 ft | 133 kts | 258° |
| 2026-05-06 20:41 | 48.34501 | 11.80710 | 1549 ft | 132 kts | 259° |
| 2026-05-06 20:41 | 48.34400 | 11.79426 | 1468 ft | 104 kts | 262° |
| 2026-05-06 20:42 | 48.34365 | 11.78622 | 1464 ft | 38 kts | 301° |
| 2026-05-06 20:42 | 48.34827 | 11.77217 | 1460 ft | 70 kts | 324° |